Time;durP1;ratioP1;P1;durP2;ratioP2;P2;SDS_P1;SDS_P2;PMS_P1;PMS_P2;Temp;Humidity;BMP_temperature;BMP_pressure;BME280_temperature;BME280_humidity;BME280_pressure;Samples;Min_cycle;Max_cycle;Signal;HPM_P1;HPM_P2
2022/03/24 00:02:43;;;;;;;27.00;15.93;;;;;;;;;;10343392;28;20250;-76
2022/03/24 00:07:44;;;;;;;25.52;15.35;;;;;;;;;;10343668;28;20334;-76
2022/03/24 00:12:46;;;;;;;27.90;15.82;;;;;;;;;;10343923;28;20224;-76
2022/03/24 00:17:47;;;;;;;25.80;14.93;;;;;;;;;;10346184;28;20287;-74
2022/03/24 00:22:49;;;;;;;24.20;16.20;;;;;;;;;;10339106;28;20201;-73
2022/03/24 00:27:50;;;;;;;27.50;16.13;;;;;;;;;;10339713;28;20193;-74
2022/03/24 00:32:51;;;;;;;28.23;16.40;;;;;;;;;;10340912;28;20296;-73
2022/03/24 00:37:52;;;;;;;28.27;16.58;;;;;;;;;;10363906;28;20220;-75
2022/03/24 00:42:53;;;;;;;26.20;16.63;;;;;;;;;;10340009;28;20220;-73
2022/03/24 00:47:54;;;;;;;32.15;17.83;;;;;;;;;;10370534;28;20681;-73
2022/03/24 00:52:56;;;;;;;28.00;16.50;;;;;;;;;;10364764;28;20211;-74
2022/03/24 00:57:58;;;;;;;26.55;15.38;;;;;;;;;;10369726;28;20310;-74
2022/03/24 01:02:59;;;;;;;30.83;16.60;;;;;;;;;;10339787;28;20263;-75
2022/03/24 01:08:01;;;;;;;26.77;15.85;;;;;;;;;;10370564;28;20209;-75
2022/03/24 01:13:03;;;;;;;28.70;16.77;;;;;;;;;;10339700;28;20323;-74
2022/03/24 01:18:06;;;;;;;29.30;17.35;;;;;;;;;;10369556;28;20204;-73
2022/03/24 01:23:07;;;;;;;30.85;17.83;;;;;;;;;;10337351;28;20588;-73
2022/03/24 01:28:09;;;;;;;30.75;16.88;;;;;;;;;;10336015;28;20687;-74
2022/03/24 01:33:10;;;;;;;32.10;17.52;;;;;;;;;;10330036;28;20654;-73
2022/03/24 01:38:11;;;;;;;32.22;16.73;;;;;;;;;;10339949;28;20603;-74
2022/03/24 01:43:12;;;;;;;28.10;16.90;;;;;;;;;;10336448;28;20240;-76
2022/03/24 01:48:14;;;;;;;30.85;16.38;;;;;;;;;;10341222;28;20200;-74
2022/03/24 01:53:18;;;;;;;25.38;16.88;;;;;;;;;;10364601;28;20205;-74
2022/03/24 01:58:20;;;;;;;30.15;17.95;;;;;;;;;;10367994;28;20218;-74
2022/03/24 02:03:22;;;;;;;30.92;17.05;;;;;;;;;;10352446;28;20243;-74
2022/03/24 02:08:23;;;;;;;29.95;16.58;;;;;;;;;;10370515;28;20204;-74
2022/03/24 02:13:24;;;;;;;28.42;17.35;;;;;;;;;;10353162;28;20266;-76
2022/03/24 02:18:25;;;;;;;31.45;18.50;;;;;;;;;;10377121;28;20200;-73
2022/03/24 02:23:26;;;;;;;30.00;17.73;;;;;;;;;;10376480;28;20209;-74
2022/03/24 02:28:27;;;;;;;31.40;17.70;;;;;;;;;;10346792;28;20865;-74
2022/03/24 02:33:28;;;;;;;29.92;17.52;;;;;;;;;;10344403;28;20219;-74
2022/03/24 02:38:32;;;;;;;31.40;17.73;;;;;;;;;;10344414;28;20205;-74
2022/03/24 02:43:33;;;;;;;27.08;17.55;;;;;;;;;;10342080;28;20825;-73
2022/03/24 02:48:34;;;;;;;30.38;17.33;;;;;;;;;;10346228;28;20283;-74
2022/03/24 02:53:35;;;;;;;31.20;17.73;;;;;;;;;;10343420;28;20323;-74
2022/03/24 02:58:36;;;;;;;33.35;17.80;;;;;;;;;;10343234;28;20193;-74
2022/03/24 03:03:38;;;;;;;29.50;17.15;;;;;;;;;;10341887;28;20223;-75
2022/03/24 03:08:39;;;;;;;31.27;18.17;;;;;;;;;;10371050;28;20200;-74
2022/03/24 03:13:40;;;;;;;33.67;17.70;;;;;;;;;;10341276;28;20215;-74
2022/03/24 03:18:44;;;;;;;32.65;17.85;;;;;;;;;;10343422;28;20201;-74
2022/03/24 03:23:46;;;;;;;32.00;18.43;;;;;;;;;;10342715;28;20211;-74
2022/03/24 03:28:47;;;;;;;33.10;18.03;;;;;;;;;;10339755;28;20212;-74
2022/03/24 03:33:48;;;;;;;33.63;18.00;;;;;;;;;;10340299;28;20223;-74
2022/03/24 03:38:49;;;;;;;31.67;17.25;;;;;;;;;;10342776;28;20203;-74
2022/03/24 03:43:50;;;;;;;31.83;18.43;;;;;;;;;;10342655;28;20266;-74
2022/03/24 03:48:52;;;;;;;28.60;15.90;;;;;;;;;;10340620;28;20208;-74
2022/03/24 03:53:53;;;;;;;27.77;16.37;;;;;;;;;;10339032;28;20581;-74
2022/03/24 03:58:54;;;;;;;29.17;17.00;;;;;;;;;;10342549;28;20211;-73
2022/03/24 04:03:55;;;;;;;33.63;17.30;;;;;;;;;;10337025;28;20262;-73
2022/03/24 04:08:56;;;;;;;26.70;16.53;;;;;;;;;;10340398;28;20204;-74
2022/03/24 04:13:57;;;;;;;29.57;17.40;;;;;;;;;;10341065;28;20213;-73
2022/03/24 04:18:58;;;;;;;36.07;18.77;;;;;;;;;;10342347;28;20208;-73
2022/03/24 04:23:59;;;;;;;30.37;17.57;;;;;;;;;;10340558;28;20204;-73
2022/03/24 04:29:00;;;;;;;32.90;17.40;;;;;;;;;;10343212;28;20288;-73
2022/03/24 04:34:01;;;;;;;29.60;17.50;;;;;;;;;;10339745;28;20855;-73
2022/03/24 04:39:02;;;;;;;28.70;17.37;;;;;;;;;;10334888;28;20188;-73
2022/03/24 04:44:04;;;;;;;34.27;18.47;;;;;;;;;;10369112;28;20232;-73
2022/03/24 04:49:05;;;;;;;28.13;16.60;;;;;;;;;;10339409;28;20262;-73
2022/03/24 04:54:06;;;;;;;35.83;18.13;;;;;;;;;;10337174;28;20216;-74
2022/03/24 04:59:07;;;;;;;36.23;18.17;;;;;;;;;;10335625;28;20291;-75
2022/03/24 05:04:08;;;;;;;36.70;18.77;;;;;;;;;;10333591;28;20220;-74
2022/03/24 05:09:09;;;;;;;37.87;20.93;;;;;;;;;;10333983;28;20783;-73
2022/03/24 05:14:11;;;;;;;37.90;20.13;;;;;;;;;;10331557;28;20820;-73
2022/03/24 05:19:13;;;;;;;41.10;20.03;;;;;;;;;;10336330;28;20224;-73
2022/03/24 05:24:14;;;;;;;34.47;19.23;;;;;;;;;;10331716;28;20219;-73
2022/03/24 05:29:15;;;;;;;37.50;20.40;;;;;;;;;;10332246;28;20208;-73
2022/03/24 05:34:16;;;;;;;37.97;18.73;;;;;;;;;;10335191;28;20484;-73
2022/03/24 05:39:18;;;;;;;35.23;19.47;;;;;;;;;;10335387;28;20212;-73
2022/03/24 05:44:19;;;;;;;30.80;18.17;;;;;;;;;;10336937;28;20232;-74
2022/03/24 05:49:21;;;;;;;41.63;20.00;;;;;;;;;;10340081;28;20201;-74
2022/03/24 05:54:40;;;;;;;36.90;20.67;;;;;;;;;;10334890;28;20306;-74
2022/03/24 05:59:42;;;;;;;36.80;20.20;;;;;;;;;;10335573;28;20224;-74
2022/03/24 06:04:43;;;;;;;41.23;20.10;;;;;;;;;;10333470;28;20227;-74
2022/03/24 06:09:45;;;;;;;39.27;20.23;;;;;;;;;;10334908;28;20204;-74
2022/03/24 06:14:46;;;;;;;36.83;21.77;;;;;;;;;;10335351;28;20694;-76
2022/03/24 06:19:47;;;;;;;42.53;22.03;;;;;;;;;;10337906;28;20739;-74
2022/03/24 06:24:48;;;;;;;42.30;22.47;;;;;;;;;;10369272;28;20287;-74
2022/03/24 06:29:49;;;;;;;41.97;22.02;;;;;;;;;;10340447;28;20222;-76
2022/03/24 06:34:52;;;;;;;43.00;22.77;;;;;;;;;;10339665;28;20735;-74
2022/03/24 06:39:53;;;;;;;45.77;23.53;;;;;;;;;;10338158;28;20205;-74
2022/03/24 06:44:54;;;;;;;43.55;23.60;;;;;;;;;;10339635;28;20223;-75
2022/03/24 06:49:55;;;;;;;43.60;23.53;;;;;;;;;;10334676;28;20208;-75
2022/03/24 06:54:56;;;;;;;42.65;21.58;;;;;;;;;;10342250;28;20294;-74
2022/03/24 06:59:57;;;;;;;44.50;22.33;;;;;;;;;;10338371;28;20216;-75
2022/03/24 07:04:58;;;;;;;38.58;21.73;;;;;;;;;;10340531;28;20224;-76
2022/03/24 07:09:59;;;;;;;39.15;21.83;;;;;;;;;;10344749;28;20216;-74
2022/03/24 07:15:00;;;;;;;37.63;22.48;;;;;;;;;;10338294;28;20732;-74
2022/03/24 07:20:03;;;;;;;39.35;22.08;;;;;;;;;;10341102;28;20205;-74
2022/03/24 07:25:08;;;;;;;46.38;22.92;;;;;;;;;;10341499;28;20213;-74
2022/03/24 07:30:10;;;;;;;43.95;23.02;;;;;;;;;;10340165;28;20637;-74
2022/03/24 07:35:14;;;;;;;42.13;23.38;;;;;;;;;;10334537;28;20235;-74
2022/03/24 07:40:18;;;;;;;40.03;21.67;;;;;;;;;;10338708;28;20228;-75
2022/03/24 07:45:22;;;;;;;41.40;24.25;;;;;;;;;;10340505;28;20707;-74
2022/03/24 07:50:24;;;;;;;45.08;23.73;;;;;;;;;;10338290;28;20819;-74
2022/03/24 07:55:29;;;;;;;42.58;24.52;;;;;;;;;;10338296;28;20607;-74
2022/03/24 08:00:30;;;;;;;45.78;23.20;;;;;;;;;;10341394;28;20224;-74
2022/03/24 08:05:31;;;;;;;47.63;23.92;;;;;;;;;;10343309;28;20591;-76
2022/03/24 08:10:32;;;;;;;45.10;24.80;;;;;;;;;;10343491;28;20203;-75
2022/03/24 08:15:35;;;;;;;44.38;23.98;;;;;;;;;;10339610;28;20223;-75
2022/03/24 08:20:37;;;;;;;39.30;24.65;;;;;;;;;;10351900;28;20291;-76
2022/03/24 08:25:40;;;;;;;41.38;23.80;;;;;;;;;;10338417;28;20238;-76
2022/03/24 08:30:41;;;;;;;39.22;24.77;;;;;;;;;;10338946;28;20231;-76
2022/03/24 08:35:43;;;;;;;39.42;23.25;;;;;;;;;;10334317;28;20305;-76
2022/03/24 08:40:44;;;;;;;43.40;23.73;;;;;;;;;;10334865;28;20282;-76
2022/03/24 08:45:45;;;;;;;40.28;22.92;;;;;;;;;;10338603;28;20577;-76
2022/03/24 08:50:46;;;;;;;37.65;22.95;;;;;;;;;;10338594;28;20204;-76
2022/03/24 08:55:48;;;;;;;42.15;24.67;;;;;;;;;;10338874;28;20290;-75
2022/03/24 09:00:49;;;;;;;42.55;23.42;;;;;;;;;;10337012;28;20212;-75
2022/03/24 09:05:50;;;;;;;41.08;23.00;;;;;;;;;;10340870;28;20200;-78
2022/03/24 09:10:51;;;;;;;46.53;22.92;;;;;;;;;;10339509;28;20200;-76
2022/03/24 09:15:52;;;;;;;40.72;22.75;;;;;;;;;;10336453;28;20205;-75
2022/03/24 09:20:53;;;;;;;41.38;23.23;;;;;;;;;;10336117;28;20198;-76
2022/03/24 09:25:54;;;;;;;39.60;22.67;;;;;;;;;;10339540;28;20242;-75
2022/03/24 09:30:56;;;;;;;36.15;22.20;;;;;;;;;;10338818;28;20216;-75
2022/03/24 09:35:57;;;;;;;44.40;24.40;;;;;;;;;;10334624;28;20640;-75
2022/03/24 09:40:58;;;;;;;39.78;23.48;;;;;;;;;;10333761;28;20311;-75
2022/03/24 09:45:59;;;;;;;41.63;22.95;;;;;;;;;;10331835;28;20197;-75
2022/03/24 09:51:00;;;;;;;39.10;22.90;;;;;;;;;;10331747;28;20235;-75
2022/03/24 09:56:01;;;;;;;36.92;22.10;;;;;;;;;;10334216;28;20829;-75
2022/03/24 10:01:03;;;;;;;42.97;22.50;;;;;;;;;;10333451;28;20689;-75
2022/03/24 10:06:07;;;;;;;40.85;22.60;;;;;;;;;;10337605;28;20656;-75
2022/03/24 10:11:08;;;;;;;37.17;22.33;;;;;;;;;;10337738;28;20280;-75
2022/03/24 10:16:10;;;;;;;38.45;22.35;;;;;;;;;;10337745;28;20302;-75
2022/03/24 10:21:13;;;;;;;33.38;22.08;;;;;;;;;;10332640;28;20696;-75
2022/03/24 10:26:14;;;;;;;35.78;22.77;;;;;;;;;;10332438;28;20244;-75
2022/03/24 10:31:15;;;;;;;36.17;22.13;;;;;;;;;;10338007;28;20226;-74
2022/03/24 10:36:17;;;;;;;36.55;22.77;;;;;;;;;;10342609;28;20888;-76
2022/03/24 10:41:25;;;;;;;32.97;20.58;;;;;;;;;;10346115;28;20235;-75
2022/03/24 10:46:28;;;;;;;32.42;20.83;;;;;;;;;;10346674;28;20287;-75
2022/03/24 10:51:33;;;;;;;32.85;20.33;;;;;;;;;;10345302;28;20231;-77
2022/03/24 10:56:39;;;;;;;30.05;21.20;;;;;;;;;;10344599;28;20211;-76
2022/03/24 11:01:40;;;;;;;25.17;18.33;;;;;;;;;;10342830;28;20223;-76
2022/03/24 11:06:48;;;;;;;28.45;18.65;;;;;;;;;;10341181;28;20200;-76
2022/03/24 11:12:10;;;;;;;25.48;18.48;;;;;;;;;;10341384;28;20223;-76
2022/03/24 11:17:11;;;;;;;23.55;17.60;;;;;;;;;;10344476;28;20209;-75
2022/03/24 11:22:12;;;;;;;25.05;16.60;;;;;;;;;;10342681;28;20208;-75
2022/03/24 11:27:15;;;;;;;24.20;16.08;;;;;;;;;;10342025;28;20291;-76
2022/03/24 11:32:16;;;;;;;29.23;17.05;;;;;;;;;;10339573;28;20224;-76
2022/03/24 11:37:17;;;;;;;25.83;16.52;;;;;;;;;;10342867;28;20208;-76
2022/03/24 11:42:18;;;;;;;24.63;15.65;;;;;;;;;;10342459;28;20287;-75
2022/03/24 11:47:22;;;;;;;21.70;14.45;;;;;;;;;;10341988;28;20236;-76
2022/03/24 11:52:24;;;;;;;22.52;13.93;;;;;;;;;;10342109;28;20197;-77
2022/03/24 11:57:25;;;;;;;22.92;13.80;;;;;;;;;;10343655;28;20205;-77
2022/03/24 12:02:28;;;;;;;22.98;12.77;;;;;;;;;;10342654;28;20413;-75
2022/03/24 12:07:29;;;;;;;18.73;12.73;;;;;;;;;;10338902;28;20952;-77
2022/03/24 12:12:31;;;;;;;15.32;12.00;;;;;;;;;;10337975;28;20794;-77
2022/03/24 12:17:34;;;;;;;19.73;12.00;;;;;;;;;;10340196;28;20197;-75
2022/03/24 12:22:36;;;;;;;21.25;12.27;;;;;;;;;;10339189;28;20916;-76
2022/03/24 12:27:58;;;;;;;19.17;11.73;;;;;;;;;;10339730;28;20196;-77
2022/03/24 12:33:06;;;;;;;18.63;12.35;;;;;;;;;;10340318;28;20218;-76
2022/03/24 12:38:40;;;;;;;18.65;12.00;;;;;;;;;;10340384;28;21257;-78
2022/03/24 12:43:43;;;;;;;14.60;10.48;;;;;;;;;;10314716;28;20246;-80
2022/03/24 12:48:44;;;;;;;15.95;9.88;;;;;;;;;;10372485;28;20200;-79
2022/03/24 12:53:52;;;;;;;13.25;9.60;;;;;;;;;;10340610;28;20208;-81
2022/03/24 12:58:55;;;;;;;17.38;8.45;;;;;;;;;;10342303;28;20212;-78
2022/03/24 13:03:56;;;;;;;16.98;9.00;;;;;;;;;;10338095;28;20215;-76
2022/03/24 13:09:13;;;;;;;16.60;9.73;;;;;;;;;;10343509;28;20212;-79
2022/03/24 13:14:14;;;;;;;12.85;7.95;;;;;;;;;;10336649;28;20208;-78
2022/03/24 13:19:21;;;;;;;13.45;7.80;;;;;;;;;;10340082;28;20203;-74
2022/03/24 13:24:22;;;;;;;8.20;6.93;;;;;;;;;;10337077;28;20255;-73
2022/03/24 13:29:34;;;;;;;6.82;6.07;;;;;;;;;;10334858;28;20215;-73
2022/03/24 13:34:35;;;;;;;8.77;5.55;;;;;;;;;;10336658;28;20235;-73
2022/03/24 13:39:37;;;;;;;9.43;5.63;;;;;;;;;;10336966;28;20830;-72
2022/03/24 13:44:38;;;;;;;16.05;6.25;;;;;;;;;;10331247;28;20263;-73
2022/03/24 13:49:39;;;;;;;11.63;4.82;;;;;;;;;;10325478;28;20259;-76
2022/03/24 13:54:40;;;;;;;59.10;7.85;;;;;;;;;;10331279;28;20308;-76
2022/03/24 13:59:42;;;;;;;13.40;6.25;;;;;;;;;;10337919;28;20688;-76
2022/03/24 14:05:00;;;;;;;13.57;5.32;;;;;;;;;;10336213;28;20212;-77
2022/03/24 14:10:01;;;;;;;11.43;5.53;;;;;;;;;;10338421;28;20609;-77
2022/03/24 14:15:05;;;;;;;8.02;4.85;;;;;;;;;;10337211;28;20278;-77
2022/03/24 14:20:10;;;;;;;7.40;4.75;;;;;;;;;;10336810;28;20268;-77
2022/03/24 14:25:15;;;;;;;8.40;4.07;;;;;;;;;;10366639;28;20212;-76
2022/03/24 14:30:16;;;;;;;11.38;3.65;;;;;;;;;;10337827;28;20210;-77
2022/03/24 14:35:22;;;;;;;14.50;3.92;;;;;;;;;;10340279;28;20299;-76
2022/03/24 14:40:32;;;;;;;14.80;3.33;;;;;;;;;;10336597;28;20274;-75
2022/03/24 14:45:34;;;;;;;15.70;2.97;;;;;;;;;;10335752;28;20201;-76
2022/03/24 14:50:35;;;;;;;6.60;3.28;;;;;;;;;;10338334;28;20193;-78
2022/03/24 14:55:39;;;;;;;7.55;4.07;;;;;;;;;;10336851;28;20220;-77
2022/03/24 15:00:41;;;;;;;7.57;3.80;;;;;;;;;;10338139;28;20244;-77
2022/03/24 15:05:43;;;;;;;9.98;4.00;;;;;;;;;;10343755;28;20287;-75
2022/03/24 15:10:44;;;;;;;13.93;5.35;;;;;;;;;;10333798;28;20207;-70
2022/03/24 15:16:03;;;;;;;12.43;5.10;;;;;;;;;;10331297;28;20212;-73
2022/03/24 15:21:05;;;;;;;20.95;5.90;;;;;;;;;;10339569;28;21127;-71
2022/03/24 15:26:07;;;;;;;147.98;16.88;;;;;;;;;;10338514;28;20209;-68
2022/03/24 15:31:08;;;;;;;27.25;6.57;;;;;;;;;;10338778;28;20223;-68
2022/03/24 15:36:09;;;;;;;11.90;5.07;;;;;;;;;;10339088;28;20216;-66
2022/03/24 15:41:10;;;;;;;15.48;4.95;;;;;;;;;;10339973;28;20229;-68
2022/03/24 15:46:12;;;;;;;7.60;5.22;;;;;;;;;;10335345;28;20747;-71
2022/03/24 15:51:13;;;;;;;9.18;4.93;;;;;;;;;;10338469;28;21011;-71
2022/03/24 15:56:14;;;;;;;21.27;7.30;;;;;;;;;;10336744;28;20228;-71
2022/03/24 16:01:17;;;;;;;9.55;5.45;;;;;;;;;;10330973;28;20598;-71
2022/03/24 16:06:18;;;;;;;14.85;6.18;;;;;;;;;;10339519;28;20311;-70
2022/03/24 16:11:19;;;;;;;9.15;5.93;;;;;;;;;;10338805;28;20681;-71
2022/03/24 16:16:20;;;;;;;8.13;5.47;;;;;;;;;;10365080;28;20228;-71
2022/03/24 16:21:21;;;;;;;9.15;5.60;;;;;;;;;;10364448;28;20212;-71
2022/03/24 16:26:22;;;;;;;12.07;5.45;;;;;;;;;;10332278;28;20699;-71
2022/03/24 16:31:24;;;;;;;11.27;4.63;;;;;;;;;;10333064;28;20267;-71
2022/03/24 16:36:25;;;;;;;9.68;4.68;;;;;;;;;;10329936;28;20326;-71
2022/03/24 16:41:26;;;;;;;13.02;5.05;;;;;;;;;;10327554;28;20312;-71
2022/03/24 16:46:28;;;;;;;12.95;4.38;;;;;;;;;;10335930;28;20219;-71
2022/03/24 16:51:29;;;;;;;10.73;4.35;;;;;;;;;;10338410;28;20200;-71
2022/03/24 16:56:32;;;;;;;4.57;3.70;;;;;;;;;;10338339;28;20208;-71
2022/03/24 17:01:33;;;;;;;5.55;4.05;;;;;;;;;;10335731;28;20323;-71
2022/03/24 17:06:36;;;;;;;9.00;4.13;;;;;;;;;;10336561;28;20200;-71
2022/03/24 17:11:37;;;;;;;8.05;3.60;;;;;;;;;;10336520;28;20208;-71
2022/03/24 17:16:38;;;;;;;9.18;3.72;;;;;;;;;;10336527;28;20227;-71
2022/03/24 17:21:42;;;;;;;9.30;3.72;;;;;;;;;;10336720;28;20206;-71
2022/03/24 17:26:43;;;;;;;5.80;4.18;;;;;;;;;;10335705;28;20749;-71
2022/03/24 17:31:45;;;;;;;8.23;4.15;;;;;;;;;;10333544;28;20251;-70
2022/03/24 17:36:46;;;;;;;7.75;4.40;;;;;;;;;;10333236;28;20692;-71
2022/03/24 17:41:47;;;;;;;12.68;5.00;;;;;;;;;;10334124;28;20216;-71
2022/03/24 17:46:48;;;;;;;10.52;5.20;;;;;;;;;;10335063;28;20203;-71
2022/03/24 17:51:49;;;;;;;10.40;5.28;;;;;;;;;;10334263;28;20208;-71
2022/03/24 17:56:50;;;;;;;12.63;6.07;;;;;;;;;;10336834;28;20298;-71
2022/03/24 18:01:51;;;;;;;13.13;5.53;;;;;;;;;;10335287;28;20204;-71
2022/03/24 18:06:52;;;;;;;9.52;5.53;;;;;;;;;;10334493;28;20204;-71
2022/03/24 18:11:55;;;;;;;9.48;5.53;;;;;;;;;;10334584;28;20300;-71
2022/03/24 18:16:57;;;;;;;8.20;5.55;;;;;;;;;;10333954;28;20239;-71
2022/03/24 18:21:58;;;;;;;12.43;6.00;;;;;;;;;;10334876;28;20196;-71
2022/03/24 18:26:59;;;;;;;13.10;6.22;;;;;;;;;;10334619;28;20203;-71
2022/03/24 18:32:00;;;;;;;21.17;11.95;;;;;;;;;;10334410;28;20220;-71
2022/03/24 18:37:01;;;;;;;15.70;11.52;;;;;;;;;;10331138;28;20643;-71
2022/03/24 18:42:02;;;;;;;15.20;10.00;;;;;;;;;;10362435;28;20302;-71
2022/03/24 18:47:06;;;;;;;14.70;8.63;;;;;;;;;;10331450;28;20200;-70
2022/03/24 18:52:07;;;;;;;20.75;10.02;;;;;;;;;;10339983;28;20238;-73
2022/03/24 18:57:09;;;;;;;15.55;8.25;;;;;;;;;;10336838;28;20208;-72
2022/03/24 19:02:11;;;;;;;14.63;8.73;;;;;;;;;;10337602;28;20204;-71
2022/03/24 19:07:13;;;;;;;15.65;9.23;;;;;;;;;;10333618;28;20262;-73
2022/03/24 19:12:16;;;;;;;15.27;8.10;;;;;;;;;;10334733;28;20200;-72
2022/03/24 19:17:17;;;;;;;14.82;8.68;;;;;;;;;;10338440;28;20204;-72
2022/03/24 19:22:19;;;;;;;16.85;8.82;;;;;;;;;;10338898;28;20208;-71
2022/03/24 19:27:20;;;;;;;13.98;8.52;;;;;;;;;;10340289;28;20209;-71
2022/03/24 19:32:21;;;;;;;13.65;8.50;;;;;;;;;;10338595;28;20335;-72
2022/03/24 19:37:22;;;;;;;18.35;8.23;;;;;;;;;;10339016;28;20688;-71
2022/03/24 19:42:26;;;;;;;15.00;9.25;;;;;;;;;;10372929;28;20282;-70
2022/03/24 19:47:27;;;;;;;15.13;8.32;;;;;;;;;;10340182;28;20199;-70
2022/03/24 19:52:28;;;;;;;14.10;8.32;;;;;;;;;;10340218;28;20219;-71
2022/03/24 19:57:29;;;;;;;13.32;8.00;;;;;;;;;;10337966;28;20840;-71
2022/03/24 20:02:30;;;;;;;13.63;6.80;;;;;;;;;;10336554;28;20229;-72
2022/03/24 20:07:31;;;;;;;11.68;7.63;;;;;;;;;;10337787;28;20736;-72
2022/03/24 20:12:32;;;;;;;11.38;7.03;;;;;;;;;;10334250;28;20344;-73
2022/03/24 20:17:33;;;;;;;10.10;6.90;;;;;;;;;;10334118;28;20203;-70
2022/03/24 20:22:35;;;;;;;12.50;7.55;;;;;;;;;;10332085;28;20208;-71
2022/03/24 20:27:37;;;;;;;18.60;6.93;;;;;;;;;;10332964;28;20243;-73
2022/03/24 20:32:38;;;;;;;10.05;6.93;;;;;;;;;;10336223;28;20277;-72
2022/03/24 20:37:40;;;;;;;12.07;6.93;;;;;;;;;;10338977;28;20200;-71
2022/03/24 20:42:41;;;;;;;12.07;7.03;;;;;;;;;;10332757;28;20233;-72
2022/03/24 20:47:42;;;;;;;12.50;6.72;;;;;;;;;;10337932;28;20200;-72
2022/03/24 20:52:44;;;;;;;10.88;6.70;;;;;;;;;;10339036;28;20220;-74
2022/03/24 20:57:45;;;;;;;17.38;6.53;;;;;;;;;;10334570;28;20213;-73
2022/03/24 21:02:47;;;;;;;11.20;6.65;;;;;;;;;;10337987;28;20227;-71
2022/03/24 21:07:49;;;;;;;9.70;6.68;;;;;;;;;;10333580;28;20202;-71
2022/03/24 21:12:50;;;;;;;12.73;7.22;;;;;;;;;;10335155;28;20222;-71
2022/03/24 21:17:51;;;;;;;15.88;7.45;;;;;;;;;;10329585;28;20204;-71
2022/03/24 21:22:52;;;;;;;16.75;8.27;;;;;;;;;;10335949;28;20764;-71
2022/03/24 21:27:53;;;;;;;21.80;10.43;;;;;;;;;;10339994;28;20204;-71
2022/03/24 21:32:57;;;;;;;23.65;11.65;;;;;;;;;;10337638;28;20227;-71
2022/03/24 21:37:58;;;;;;;28.48;13.50;;;;;;;;;;10369033;28;20200;-69
2022/03/24 21:42:59;;;;;;;36.10;17.45;;;;;;;;;;10339905;28;20647;-71
2022/03/24 21:48:01;;;;;;;45.20;18.48;;;;;;;;;;10337071;28;20240;-71
2022/03/24 21:53:02;;;;;;;40.45;19.20;;;;;;;;;;10331695;28;20211;-71
2022/03/24 21:58:04;;;;;;;42.38;19.00;;;;;;;;;;10334370;28;20197;-71
2022/03/24 22:03:05;;;;;;;38.58;17.85;;;;;;;;;;10331907;28;20220;-71
2022/03/24 22:08:06;;;;;;;36.95;17.60;;;;;;;;;;10335152;28;20274;-72
2022/03/24 22:13:08;;;;;;;35.58;17.25;;;;;;;;;;10335453;28;20217;-71
2022/03/24 22:18:09;;;;;;;36.95;17.23;;;;;;;;;;10335143;28;20291;-71
2022/03/24 22:23:10;;;;;;;34.90;16.17;;;;;;;;;;10335438;28;20196;-71
2022/03/24 22:28:11;;;;;;;31.05;14.63;;;;;;;;;;10340413;28;20210;-71
2022/03/24 22:33:12;;;;;;;25.02;12.60;;;;;;;;;;10337704;28;20254;-71
2022/03/24 22:38:13;;;;;;;25.55;12.20;;;;;;;;;;10337414;28;20743;-71
2022/03/24 22:43:15;;;;;;;19.00;10.77;;;;;;;;;;10343768;28;20234;-71
2022/03/24 22:48:16;;;;;;;19.33;9.48;;;;;;;;;;10342109;28;20434;-71
2022/03/24 22:53:17;;;;;;;15.68;9.32;;;;;;;;;;10342266;28;20295;-71
2022/03/24 22:58:19;;;;;;;14.45;8.10;;;;;;;;;;10341639;28;20207;-71
2022/03/24 23:03:20;;;;;;;14.38;8.32;;;;;;;;;;10342747;28;20216;-71
2022/03/24 23:08:21;;;;;;;15.25;8.15;;;;;;;;;;10345081;28;20212;-71
2022/03/24 23:13:22;;;;;;;16.10;8.57;;;;;;;;;;10342234;28;20695;-72
2022/03/24 23:18:23;;;;;;;14.20;8.20;;;;;;;;;;10341786;28;20219;-72
2022/03/24 23:23:25;;;;;;;12.30;7.88;;;;;;;;;;10344115;28;20200;-72
2022/03/24 23:28:26;;;;;;;13.77;8.07;;;;;;;;;;10340275;28;20220;-72
2022/03/24 23:33:28;;;;;;;14.98;7.90;;;;;;;;;;10337012;28;20277;-72
2022/03/24 23:38:29;;;;;;;13.00;7.78;;;;;;;;;;10340878;28;20696;-73
2022/03/24 23:43:30;;;;;;;12.07;7.45;;;;;;;;;;10342943;28;20239;-70
2022/03/24 23:48:31;;;;;;;17.25;8.05;;;;;;;;;;10341265;28;20684;-71
2022/03/24 23:53:32;;;;;;;18.77;7.63;;;;;;;;;;10335357;28;20200;-71
2022/03/24 23:58:34;;;;;;;13.73;8.15;;;;;;;;;;10342063;28;20259;-71
